sensor_id;sensor_type;location;lat;lon;timestamp;P1;durP1;ratioP1;P2;durP2;ratioP2
57389;SDS011;43217;52.694;6.214;2023-01-04T00:01:26;5.43;;;3.40;;
57389;SDS011;43217;52.694;6.214;2023-01-04T00:03:51;8.80;;;4.25;;
57389;SDS011;43217;52.694;6.214;2023-01-04T00:06:17;8.05;;;3.30;;
57389;SDS011;43217;52.694;6.214;2023-01-04T00:08:43;7.85;;;5.40;;
57389;SDS011;43217;52.694;6.214;2023-01-04T00:11:13;9.95;;;4.38;;
57389;SDS011;43217;52.694;6.214;2023-01-04T00:13:41;9.45;;;4.30;;
57389;SDS011;43217;52.694;6.214;2023-01-04T00:16:11;9.15;;;3.72;;
57389;SDS011;43217;52.694;6.214;2023-01-04T00:18:39;7.43;;;4.00;;
57389;SDS011;43217;52.694;6.214;2023-01-04T00:21:08;6.60;;;4.10;;
57389;SDS011;43217;52.694;6.214;2023-01-04T00:23:39;10.55;;;4.32;;
57389;SDS011;43217;52.694;6.214;2023-01-04T00:26:10;7.45;;;4.30;;
57389;SDS011;43217;52.694;6.214;2023-01-04T00:28:37;8.60;;;4.47;;
57389;SDS011;43217;52.694;6.214;2023-01-04T00:31:04;8.55;;;4.25;;
57389;SDS011;43217;52.694;6.214;2023-01-04T00:33:31;8.82;;;4.68;;
57389;SDS011;43217;52.694;6.214;2023-01-04T00:36:10;8.05;;;4.80;;
57389;SDS011;43217;52.694;6.214;2023-01-04T00:38:38;6.40;;;4.40;;
57389;SDS011;43217;52.694;6.214;2023-01-04T00:41:04;12.18;;;4.88;;
57389;SDS011;43217;52.694;6.214;2023-01-04T00:43:31;6.95;;;4.13;;
57389;SDS011;43217;52.694;6.214;2023-01-04T00:45:57;8.38;;;5.05;;
57389;SDS011;43217;52.694;6.214;2023-01-04T00:48:23;9.80;;;5.45;;
57389;SDS011;43217;52.694;6.214;2023-01-04T00:50:49;10.60;;;6.45;;
57389;SDS011;43217;52.694;6.214;2023-01-04T00:53:16;9.00;;;6.72;;
57389;SDS011;43217;52.694;6.214;2023-01-04T00:55:42;9.75;;;4.75;;
57389;SDS011;43217;52.694;6.214;2023-01-04T00:58:08;8.77;;;4.88;;
57389;SDS011;43217;52.694;6.214;2023-01-04T01:00:34;12.50;;;5.47;;
57389;SDS011;43217;52.694;6.214;2023-01-04T01:03:00;5.82;;;4.63;;
57389;SDS011;43217;52.694;6.214;2023-01-04T01:05:26;9.52;;;4.80;;
57389;SDS011;43217;52.694;6.214;2023-01-04T01:07:52;7.93;;;5.40;;
57389;SDS011;43217;52.694;6.214;2023-01-04T01:10:18;7.25;;;5.00;;
57389;SDS011;43217;52.694;6.214;2023-01-04T01:12:43;10.07;;;5.68;;
57389;SDS011;43217;52.694;6.214;2023-01-04T01:15:09;8.88;;;6.07;;
57389;SDS011;43217;52.694;6.214;2023-01-04T01:17:35;9.68;;;5.50;;
57389;SDS011;43217;52.694;6.214;2023-01-04T01:20:02;9.23;;;5.40;;
57389;SDS011;43217;52.694;6.214;2023-01-04T01:22:29;6.90;;;4.88;;
57389;SDS011;43217;52.694;6.214;2023-01-04T01:24:55;9.18;;;5.57;;
57389;SDS011;43217;52.694;6.214;2023-01-04T01:27:21;7.53;;;5.20;;
57389;SDS011;43217;52.694;6.214;2023-01-04T01:29:47;8.15;;;5.03;;
57389;SDS011;43217;52.694;6.214;2023-01-04T01:32:12;10.40;;;5.80;;
57389;SDS011;43217;52.694;6.214;2023-01-04T01:34:38;9.80;;;5.65;;
57389;SDS011;43217;52.694;6.214;2023-01-04T01:37:03;8.93;;;5.57;;
57389;SDS011;43217;52.694;6.214;2023-01-04T01:39:30;9.50;;;5.63;;
57389;SDS011;43217;52.694;6.214;2023-01-04T01:41:55;8.38;;;5.40;;
57389;SDS011;43217;52.694;6.214;2023-01-04T01:47:06;8.30;;;5.50;;
57389;SDS011;43217;52.694;6.214;2023-01-04T01:49:40;7.90;;;5.70;;
57389;SDS011;43217;52.694;6.214;2023-01-04T01:52:07;8.73;;;5.38;;
57389;SDS011;43217;52.694;6.214;2023-01-04T01:54:39;10.10;;;5.60;;
57389;SDS011;43217;52.694;6.214;2023-01-04T01:57:09;9.70;;;5.40;;
57389;SDS011;43217;52.694;6.214;2023-01-04T01:59:38;8.07;;;5.32;;
57389;SDS011;43217;52.694;6.214;2023-01-04T02:02:06;7.30;;;5.07;;
57389;SDS011;43217;52.694;6.214;2023-01-04T02:04:33;10.13;;;5.20;;
57389;SDS011;43217;52.694;6.214;2023-01-04T02:07:01;5.90;;;5.15;;
57389;SDS011;43217;52.694;6.214;2023-01-04T02:09:28;7.43;;;5.13;;
57389;SDS011;43217;52.694;6.214;2023-01-04T02:11:55;5.75;;;4.53;;
57389;SDS011;43217;52.694;6.214;2023-01-04T02:14:20;6.93;;;5.30;;
57389;SDS011;43217;52.694;6.214;2023-01-04T02:19:58;5.93;;;4.57;;
57389;SDS011;43217;52.694;6.214;2023-01-04T02:25:48;6.10;;;4.60;;
57389;SDS011;43217;52.694;6.214;2023-01-04T02:33:51;5.22;;;4.00;;
57389;SDS011;43217;52.694;6.214;2023-01-04T02:45:09;5.43;;;3.50;;
57389;SDS011;43217;52.694;6.214;2023-01-04T02:47:37;4.45;;;3.65;;
57389;SDS011;43217;52.694;6.214;2023-01-04T02:53:09;3.60;;;3.30;;
57389;SDS011;43217;52.694;6.214;2023-01-04T02:55:41;2.97;;;2.78;;
57389;SDS011;43217;52.694;6.214;2023-01-04T02:59:00;3.85;;;2.95;;
57389;SDS011;43217;52.694;6.214;2023-01-04T03:03:54;4.03;;;3.60;;
57389;SDS011;43217;52.694;6.214;2023-01-04T03:06:43;4.57;;;3.92;;
57389;SDS011;43217;52.694;6.214;2023-01-04T03:09:26;5.05;;;4.22;;
57389;SDS011;43217;52.694;6.214;2023-01-04T03:11:58;5.50;;;4.45;;
57389;SDS011;43217;52.694;6.214;2023-01-04T03:14:49;6.88;;;5.00;;
57389;SDS011;43217;52.694;6.214;2023-01-04T03:17:17;5.60;;;4.78;;
57389;SDS011;43217;52.694;6.214;2023-01-04T03:19:45;6.00;;;5.50;;
57389;SDS011;43217;52.694;6.214;2023-01-04T03:22:43;6.15;;;5.65;;
57389;SDS011;43217;52.694;6.214;2023-01-04T03:25:38;8.45;;;6.60;;
57389;SDS011;43217;52.694;6.214;2023-01-04T03:28:43;6.63;;;6.03;;
57389;SDS011;43217;52.694;6.214;2023-01-04T03:34:15;8.30;;;6.65;;
57389;SDS011;43217;52.694;6.214;2023-01-04T03:37:03;8.10;;;6.93;;
57389;SDS011;43217;52.694;6.214;2023-01-04T03:42:42;7.25;;;6.55;;
57389;SDS011;43217;52.694;6.214;2023-01-04T03:45:32;7.70;;;6.88;;
57389;SDS011;43217;52.694;6.214;2023-01-04T03:49:05;7.57;;;6.85;;
57389;SDS011;43217;52.694;6.214;2023-01-04T03:51:27;7.78;;;7.07;;
57389;SDS011;43217;52.694;6.214;2023-01-04T03:56:31;7.30;;;6.60;;
57389;SDS011;43217;52.694;6.214;2023-01-04T03:58:59;7.22;;;6.57;;
57389;SDS011;43217;52.694;6.214;2023-01-04T04:01:25;8.18;;;7.30;;
57389;SDS011;43217;52.694;6.214;2023-01-04T04:03:52;9.32;;;7.63;;
57389;SDS011;43217;52.694;6.214;2023-01-04T04:06:36;8.32;;;7.57;;
57389;SDS011;43217;52.694;6.214;2023-01-04T04:09:21;8.95;;;8.15;;
57389;SDS011;43217;52.694;6.214;2023-01-04T04:11:46;8.77;;;8.07;;
57389;SDS011;43217;52.694;6.214;2023-01-04T04:14:12;9.18;;;8.38;;
57389;SDS011;43217;52.694;6.214;2023-01-04T04:16:38;10.00;;;9.10;;
57389;SDS011;43217;52.694;6.214;2023-01-04T04:19:03;10.50;;;9.40;;
57389;SDS011;43217;52.694;6.214;2023-01-04T04:21:29;10.18;;;9.27;;
57389;SDS011;43217;52.694;6.214;2023-01-04T04:23:55;9.75;;;8.73;;
57389;SDS011;43217;52.694;6.214;2023-01-04T04:26:20;10.68;;;9.68;;
57389;SDS011;43217;52.694;6.214;2023-01-04T04:28:47;10.38;;;9.38;;
57389;SDS011;43217;52.694;6.214;2023-01-04T04:31:13;10.10;;;8.88;;
57389;SDS011;43217;52.694;6.214;2023-01-04T04:33:38;11.55;;;10.45;;
57389;SDS011;43217;52.694;6.214;2023-01-04T04:36:04;11.43;;;10.32;;
57389;SDS011;43217;52.694;6.214;2023-01-04T04:38:30;10.65;;;9.65;;
57389;SDS011;43217;52.694;6.214;2023-01-04T04:40:56;12.65;;;11.18;;
57389;SDS011;43217;52.694;6.214;2023-01-04T04:43:40;12.65;;;11.35;;
57389;SDS011;43217;52.694;6.214;2023-01-04T04:46:05;12.43;;;11.23;;
57389;SDS011;43217;52.694;6.214;2023-01-04T04:48:31;12.98;;;11.75;;
57389;SDS011;43217;52.694;6.214;2023-01-04T04:50:56;13.07;;;11.60;;
57389;SDS011;43217;52.694;6.214;2023-01-04T04:53:22;12.52;;;11.32;;
57389;SDS011;43217;52.694;6.214;2023-01-04T04:55:51;13.50;;;12.10;;
57389;SDS011;43217;52.694;6.214;2023-01-04T04:58:20;14.48;;;11.85;;
57389;SDS011;43217;52.694;6.214;2023-01-04T05:00:45;13.98;;;12.00;;
57389;SDS011;43217;52.694;6.214;2023-01-04T05:03:11;13.25;;;11.95;;
57389;SDS011;43217;52.694;6.214;2023-01-04T05:05:37;14.57;;;13.07;;
57389;SDS011;43217;52.694;6.214;2023-01-04T05:08:02;13.93;;;12.50;;
57389;SDS011;43217;52.694;6.214;2023-01-04T05:10:28;13.95;;;12.18;;
57389;SDS011;43217;52.694;6.214;2023-01-04T05:12:54;14.50;;;13.00;;
57389;SDS011;43217;52.694;6.214;2023-01-04T05:15:45;13.90;;;12.43;;
57389;SDS011;43217;52.694;6.214;2023-01-04T05:18:13;13.75;;;12.40;;
57389;SDS011;43217;52.694;6.214;2023-01-04T05:20:40;12.55;;;11.25;;
57389;SDS011;43217;52.694;6.214;2023-01-04T05:23:06;13.32;;;11.93;;
57389;SDS011;43217;52.694;6.214;2023-01-04T05:25:34;11.77;;;10.57;;
57389;SDS011;43217;52.694;6.214;2023-01-04T05:27:59;12.35;;;11.13;;
57389;SDS011;43217;52.694;6.214;2023-01-04T05:30:25;12.18;;;10.98;;
57389;SDS011;43217;52.694;6.214;2023-01-04T05:33:09;11.55;;;10.38;;
57389;SDS011;43217;52.694;6.214;2023-01-04T05:35:35;10.98;;;9.65;;
57389;SDS011;43217;52.694;6.214;2023-01-04T05:38:01;11.50;;;9.63;;
57389;SDS011;43217;52.694;6.214;2023-01-04T05:40:27;10.70;;;9.68;;
57389;SDS011;43217;52.694;6.214;2023-01-04T05:42:53;11.27;;;9.95;;
57389;SDS011;43217;52.694;6.214;2023-01-04T05:45:18;10.60;;;9.23;;
57389;SDS011;43217;52.694;6.214;2023-01-04T05:47:47;10.88;;;9.77;;
57389;SDS011;43217;52.694;6.214;2023-01-04T05:50:15;11.95;;;10.05;;
57389;SDS011;43217;52.694;6.214;2023-01-04T05:52:41;11.40;;;9.57;;
57389;SDS011;43217;52.694;6.214;2023-01-04T05:55:06;10.65;;;9.63;;
57389;SDS011;43217;52.694;6.214;2023-01-04T05:57:32;11.15;;;9.90;;
57389;SDS011;43217;52.694;6.214;2023-01-04T05:59:58;9.93;;;8.95;;
57389;SDS011;43217;52.694;6.214;2023-01-04T06:02:28;12.88;;;8.55;;
57389;SDS011;43217;52.694;6.214;2023-01-04T06:04:54;11.05;;;9.00;;
57389;SDS011;43217;52.694;6.214;2023-01-04T06:07:20;11.73;;;9.25;;
57389;SDS011;43217;52.694;6.214;2023-01-04T06:09:46;11.98;;;9.40;;
57389;SDS011;43217;52.694;6.214;2023-01-04T06:12:12;9.32;;;8.38;;
57389;SDS011;43217;52.694;6.214;2023-01-04T06:14:38;9.77;;;8.65;;
57389;SDS011;43217;52.694;6.214;2023-01-04T06:17:04;8.40;;;7.60;;
57389;SDS011;43217;52.694;6.214;2023-01-04T06:19:30;8.00;;;7.20;;
57389;SDS011;43217;52.694;6.214;2023-01-04T06:21:56;7.63;;;6.80;;
57389;SDS011;43217;52.694;6.214;2023-01-04T06:24:22;7.90;;;6.40;;
57389;SDS011;43217;52.694;6.214;2023-01-04T06:26:47;7.45;;;6.50;;
57389;SDS011;43217;52.694;6.214;2023-01-04T06:29:13;8.70;;;6.35;;
57389;SDS011;43217;52.694;6.214;2023-01-04T06:31:39;7.78;;;6.53;;
57389;SDS011;43217;52.694;6.214;2023-01-04T06:34:05;6.97;;;6.25;;
57389;SDS011;43217;52.694;6.214;2023-01-04T06:36:31;5.68;;;5.07;;
57389;SDS011;43217;52.694;6.214;2023-01-04T06:38:57;5.45;;;4.82;;
57389;SDS011;43217;52.694;6.214;2023-01-04T06:41:24;4.87;;;4.30;;
57389;SDS011;43217;52.694;6.214;2023-01-04T06:43:50;5.07;;;4.63;;
57389;SDS011;43217;52.694;6.214;2023-01-04T06:46:16;5.45;;;4.40;;
57389;SDS011;43217;52.694;6.214;2023-01-04T06:48:41;5.30;;;4.80;;
57389;SDS011;43217;52.694;6.214;2023-01-04T06:51:07;5.97;;;4.65;;
57389;SDS011;43217;52.694;6.214;2023-01-04T06:53:33;6.82;;;4.72;;
57389;SDS011;43217;52.694;6.214;2023-01-04T06:55:58;4.50;;;4.10;;
57389;SDS011;43217;52.694;6.214;2023-01-04T06:58:24;4.72;;;4.32;;
57389;SDS011;43217;52.694;6.214;2023-01-04T07:00:50;5.18;;;4.68;;
57389;SDS011;43217;52.694;6.214;2023-01-04T07:03:16;5.22;;;4.60;;
57389;SDS011;43217;52.694;6.214;2023-01-04T07:05:42;5.00;;;4.50;;
57389;SDS011;43217;52.694;6.214;2023-01-04T07:08:08;5.60;;;5.10;;
57389;SDS011;43217;52.694;6.214;2023-01-04T07:10:35;6.22;;;5.20;;
57389;SDS011;43217;52.694;6.214;2023-01-04T07:13:00;5.93;;;5.05;;
57389;SDS011;43217;52.694;6.214;2023-01-04T07:15:26;5.88;;;4.88;;
57389;SDS011;43217;52.694;6.214;2023-01-04T07:17:52;5.78;;;5.28;;
57389;SDS011;43217;52.694;6.214;2023-01-04T07:20:18;5.90;;;5.30;;
57389;SDS011;43217;52.694;6.214;2023-01-04T07:22:43;6.72;;;5.72;;
57389;SDS011;43217;52.694;6.214;2023-01-04T07:25:09;6.53;;;5.80;;
57389;SDS011;43217;52.694;6.214;2023-01-04T07:27:35;6.43;;;5.80;;
57389;SDS011;43217;52.694;6.214;2023-01-04T07:30:00;6.45;;;5.85;;
57389;SDS011;43217;52.694;6.214;2023-01-04T07:32:26;6.90;;;6.32;;
57389;SDS011;43217;52.694;6.214;2023-01-04T07:34:52;7.68;;;6.70;;
57389;SDS011;43217;52.694;6.214;2023-01-04T07:37:17;7.53;;;6.80;;
57389;SDS011;43217;52.694;6.214;2023-01-04T07:39:43;7.78;;;7.05;;
57389;SDS011;43217;52.694;6.214;2023-01-04T07:42:09;8.45;;;6.88;;
57389;SDS011;43217;52.694;6.214;2023-01-04T07:44:35;8.77;;;7.93;;
57389;SDS011;43217;52.694;6.214;2023-01-04T07:47:01;8.45;;;7.18;;
57389;SDS011;43217;52.694;6.214;2023-01-04T07:49:27;9.00;;;7.88;;
57389;SDS011;43217;52.694;6.214;2023-01-04T07:51:53;10.02;;;8.35;;
57389;SDS011;43217;52.694;6.214;2023-01-04T07:54:19;11.57;;;8.20;;
57389;SDS011;43217;52.694;6.214;2023-01-04T07:56:45;8.68;;;7.78;;
57389;SDS011;43217;52.694;6.214;2023-01-04T07:59:12;10.00;;;8.00;;
57389;SDS011;43217;52.694;6.214;2023-01-04T08:01:39;9.00;;;8.10;;
57389;SDS011;43217;52.694;6.214;2023-01-04T08:04:05;9.63;;;8.10;;
57389;SDS011;43217;52.694;6.214;2023-01-04T08:06:32;10.55;;;7.82;;
57389;SDS011;43217;52.694;6.214;2023-01-04T08:09:02;11.00;;;8.50;;
57389;SDS011;43217;52.694;6.214;2023-01-04T08:11:29;10.55;;;8.85;;
57389;SDS011;43217;52.694;6.214;2023-01-04T08:13:55;9.32;;;8.23;;
57389;SDS011;43217;52.694;6.214;2023-01-04T08:16:25;9.30;;;8.35;;
57389;SDS011;43217;52.694;6.214;2023-01-04T08:18:56;9.20;;;8.27;;
57389;SDS011;43217;52.694;6.214;2023-01-04T08:21:48;9.90;;;8.90;;
57389;SDS011;43217;52.694;6.214;2023-01-04T08:24:15;10.20;;;8.75;;
57389;SDS011;43217;52.694;6.214;2023-01-04T08:26:43;9.93;;;7.88;;
57389;SDS011;43217;52.694;6.214;2023-01-04T08:29:09;8.07;;;7.22;;
57389;SDS011;43217;52.694;6.214;2023-01-04T08:31:36;9.57;;;7.63;;
57389;SDS011;43217;52.694;6.214;2023-01-04T08:34:02;8.20;;;7.13;;
57389;SDS011;43217;52.694;6.214;2023-01-04T08:38:57;9.18;;;7.30;;
57389;SDS011;43217;52.694;6.214;2023-01-04T08:43:50;8.30;;;7.43;;
57389;SDS011;43217;52.694;6.214;2023-01-04T08:46:15;8.80;;;6.45;;
57389;SDS011;43217;52.694;6.214;2023-01-04T08:48:41;11.00;;;7.40;;
57389;SDS011;43217;52.694;6.214;2023-01-04T08:51:12;8.93;;;7.80;;
57389;SDS011;43217;52.694;6.214;2023-01-04T08:53:39;8.27;;;7.47;;
57389;SDS011;43217;52.694;6.214;2023-01-04T08:56:05;10.50;;;8.02;;
57389;SDS011;43217;52.694;6.214;2023-01-04T08:58:32;9.23;;;7.47;;
57389;SDS011;43217;52.694;6.214;2023-01-04T09:00:59;8.30;;;6.95;;
57389;SDS011;43217;52.694;6.214;2023-01-04T09:03:26;9.52;;;6.70;;
57389;SDS011;43217;52.694;6.214;2023-01-04T09:05:52;7.40;;;6.68;;
57389;SDS011;43217;52.694;6.214;2023-01-04T09:08:17;6.85;;;6.20;;
57389;SDS011;43217;52.694;6.214;2023-01-04T09:10:43;7.53;;;6.15;;
57389;SDS011;43217;52.694;6.214;2023-01-04T09:13:09;7.22;;;6.00;;
57389;SDS011;43217;52.694;6.214;2023-01-04T09:15:34;8.38;;;6.18;;
57389;SDS011;43217;52.694;6.214;2023-01-04T09:18:00;6.20;;;5.65;;
57389;SDS011;43217;52.694;6.214;2023-01-04T09:20:27;8.50;;;5.70;;
57389;SDS011;43217;52.694;6.214;2023-01-04T09:22:53;7.63;;;5.47;;
57389;SDS011;43217;52.694;6.214;2023-01-04T09:25:20;5.93;;;4.85;;
57389;SDS011;43217;52.694;6.214;2023-01-04T09:27:46;6.63;;;5.00;;
57389;SDS011;43217;52.694;6.214;2023-01-04T09:30:11;4.28;;;3.88;;
57389;SDS011;43217;52.694;6.214;2023-01-04T09:32:37;3.92;;;3.60;;
57389;SDS011;43217;52.694;6.214;2023-01-04T09:35:03;4.18;;;3.65;;
57389;SDS011;43217;52.694;6.214;2023-01-04T09:37:29;3.85;;;3.45;;
57389;SDS011;43217;52.694;6.214;2023-01-04T09:39:54;3.88;;;3.33;;
57389;SDS011;43217;52.694;6.214;2023-01-04T09:42:25;3.50;;;3.20;;
57389;SDS011;43217;52.694;6.214;2023-01-04T09:45:20;3.28;;;3.08;;
57389;SDS011;43217;52.694;6.214;2023-01-04T09:48:22;3.15;;;2.90;;
57389;SDS011;43217;52.694;6.214;2023-01-04T09:50:55;3.70;;;3.10;;
57389;SDS011;43217;52.694;6.214;2023-01-04T09:55:53;2.80;;;2.60;;
57389;SDS011;43217;52.694;6.214;2023-01-04T09:58:30;3.17;;;2.88;;
57389;SDS011;43217;52.694;6.214;2023-01-04T10:01:02;3.30;;;2.90;;
57389;SDS011;43217;52.694;6.214;2023-01-04T10:05:58;3.10;;;2.90;;
57389;SDS011;43217;52.694;6.214;2023-01-04T10:08:25;3.03;;;2.83;;
57389;SDS011;43217;52.694;6.214;2023-01-04T10:24:59;8.27;;;3.50;;
57389;SDS011;43217;52.694;6.214;2023-01-04T10:27:58;8.23;;;3.33;;
57389;SDS011;43217;52.694;6.214;2023-01-04T10:33:27;7.80;;;3.13;;
57389;SDS011;43217;52.694;6.214;2023-01-04T10:38:28;8.00;;;3.47;;
57389;SDS011;43217;52.694;6.214;2023-01-04T10:41:04;10.55;;;3.10;;
57389;SDS011;43217;52.694;6.214;2023-01-04T10:46:29;9.75;;;3.25;;
57389;SDS011;43217;52.694;6.214;2023-01-04T10:49:06;7.65;;;3.53;;
57389;SDS011;43217;52.694;6.214;2023-01-04T10:52:01;11.75;;;3.72;;
57389;SDS011;43217;52.694;6.214;2023-01-04T10:54:43;9.93;;;3.50;;
57389;SDS011;43217;52.694;6.214;2023-01-04T11:00:04;16.48;;;4.22;;
57389;SDS011;43217;52.694;6.214;2023-01-04T11:05:42;12.73;;;4.05;;
57389;SDS011;43217;52.694;6.214;2023-01-04T11:13:21;14.00;;;4.55;;
57389;SDS011;43217;52.694;6.214;2023-01-04T11:15:47;15.02;;;3.95;;
57389;SDS011;43217;52.694;6.214;2023-01-04T11:18:13;12.73;;;3.85;;
57389;SDS011;43217;52.694;6.214;2023-01-04T11:20:40;19.08;;;4.30;;
57389;SDS011;43217;52.694;6.214;2023-01-04T11:23:07;14.35;;;3.83;;
57389;SDS011;43217;52.694;6.214;2023-01-04T11:26:20;11.18;;;3.88;;
57389;SDS011;43217;52.694;6.214;2023-01-04T11:31:27;12.07;;;4.28;;
57389;SDS011;43217;52.694;6.214;2023-01-04T11:34:12;14.70;;;4.68;;
57389;SDS011;43217;52.694;6.214;2023-01-04T11:36:39;17.23;;;4.82;;
57389;SDS011;43217;52.694;6.214;2023-01-04T11:39:16;12.07;;;4.13;;
57389;SDS011;43217;52.694;6.214;2023-01-04T11:41:53;14.63;;;4.35;;
57389;SDS011;43217;52.694;6.214;2023-01-04T11:44:22;13.60;;;4.47;;
57389;SDS011;43217;52.694;6.214;2023-01-04T11:47:15;11.93;;;4.97;;
57389;SDS011;43217;52.694;6.214;2023-01-04T11:49:45;16.85;;;4.18;;
57389;SDS011;43217;52.694;6.214;2023-01-04T11:55:22;10.80;;;4.10;;
57389;SDS011;43217;52.694;6.214;2023-01-04T11:57:55;9.38;;;2.95;;
57389;SDS011;43217;52.694;6.214;2023-01-04T12:00:30;9.90;;;3.00;;
57389;SDS011;43217;52.694;6.214;2023-01-04T12:03:19;6.57;;;2.80;;
57389;SDS011;43217;52.694;6.214;2023-01-04T12:05:49;5.85;;;1.90;;
57389;SDS011;43217;52.694;6.214;2023-01-04T12:11:01;5.28;;;2.13;;
57389;SDS011;43217;52.694;6.214;2023-01-04T12:13:31;5.43;;;1.80;;
57389;SDS011;43217;52.694;6.214;2023-01-04T12:16:02;3.92;;;1.85;;
57389;SDS011;43217;52.694;6.214;2023-01-04T12:18:46;3.65;;;1.90;;
57389;SDS011;43217;52.694;6.214;2023-01-04T12:21:16;5.85;;;2.20;;
57389;SDS011;43217;52.694;6.214;2023-01-04T12:23:46;5.70;;;2.45;;
57389;SDS011;43217;52.694;6.214;2023-01-04T12:26:13;6.72;;;2.40;;
57389;SDS011;43217;52.694;6.214;2023-01-04T12:28:41;4.85;;;1.75;;
57389;SDS011;43217;52.694;6.214;2023-01-04T12:36:18;2.05;;;1.52;;
57389;SDS011;43217;52.694;6.214;2023-01-04T12:41:21;5.57;;;1.55;;
57389;SDS011;43217;52.694;6.214;2023-01-04T12:49:59;12.45;;;3.10;;
57389;SDS011;43217;52.694;6.214;2023-01-04T12:54:58;8.95;;;2.17;;
57389;SDS011;43217;52.694;6.214;2023-01-04T13:02:22;10.45;;;3.15;;
57389;SDS011;43217;52.694;6.214;2023-01-04T13:07:49;10.82;;;2.80;;
57389;SDS011;43217;52.694;6.214;2023-01-04T13:10:20;13.73;;;2.78;;
57389;SDS011;43217;52.694;6.214;2023-01-04T13:17:57;12.63;;;3.05;;
57389;SDS011;43217;52.694;6.214;2023-01-04T13:20:23;13.63;;;3.28;;
57389;SDS011;43217;52.694;6.214;2023-01-04T13:22:54;10.45;;;2.53;;
57389;SDS011;43217;52.694;6.214;2023-01-04T13:25:22;11.82;;;2.60;;
57389;SDS011;43217;52.694;6.214;2023-01-04T13:27:57;12.13;;;3.67;;
57389;SDS011;43217;52.694;6.214;2023-01-04T13:30:28;12.20;;;3.08;;
57389;SDS011;43217;52.694;6.214;2023-01-04T13:32:57;12.20;;;3.35;;
57389;SDS011;43217;52.694;6.214;2023-01-04T13:35:23;10.85;;;3.00;;
57389;SDS011;43217;52.694;6.214;2023-01-04T13:37:49;13.38;;;2.97;;
57389;SDS011;43217;52.694;6.214;2023-01-04T13:42:42;12.15;;;3.15;;
57389;SDS011;43217;52.694;6.214;2023-01-04T13:47:55;12.75;;;3.13;;
57389;SDS011;43217;52.694;6.214;2023-01-04T13:50:25;12.50;;;3.03;;
57389;SDS011;43217;52.694;6.214;2023-01-04T13:52:53;14.90;;;3.60;;
57389;SDS011;43217;52.694;6.214;2023-01-04T13:55:23;14.90;;;2.75;;
57389;SDS011;43217;52.694;6.214;2023-01-04T13:57:52;12.73;;;3.35;;
57389;SDS011;43217;52.694;6.214;2023-01-04T14:00:26;10.55;;;2.95;;
57389;SDS011;43217;52.694;6.214;2023-01-04T14:03:24;11.20;;;3.22;;
57389;SDS011;43217;52.694;6.214;2023-01-04T14:05:53;15.57;;;3.33;;
57389;SDS011;43217;52.694;6.214;2023-01-04T14:08:31;14.10;;;3.53;;
57389;SDS011;43217;52.694;6.214;2023-01-04T14:11:00;14.73;;;3.40;;
57389;SDS011;43217;52.694;6.214;2023-01-04T14:13:26;10.25;;;3.08;;
57389;SDS011;43217;52.694;6.214;2023-01-04T14:16:05;11.25;;;3.10;;
57389;SDS011;43217;52.694;6.214;2023-01-04T14:18:37;14.40;;;3.20;;
57389;SDS011;43217;52.694;6.214;2023-01-04T14:21:03;13.45;;;3.17;;
57389;SDS011;43217;52.694;6.214;2023-01-04T14:23:33;14.63;;;3.60;;
57389;SDS011;43217;52.694;6.214;2023-01-04T14:26:01;11.60;;;3.20;;
57389;SDS011;43217;52.694;6.214;2023-01-04T14:28:29;11.98;;;2.95;;
57389;SDS011;43217;52.694;6.214;2023-01-04T14:33:32;10.60;;;2.65;;
57389;SDS011;43217;52.694;6.214;2023-01-04T14:36:20;14.57;;;3.17;;
57389;SDS011;43217;52.694;6.214;2023-01-04T14:38:53;12.23;;;3.30;;
57389;SDS011;43217;52.694;6.214;2023-01-04T14:41:31;12.30;;;3.38;;
57389;SDS011;43217;52.694;6.214;2023-01-04T14:46:23;13.23;;;3.58;;
57389;SDS011;43217;52.694;6.214;2023-01-04T14:48:50;12.63;;;3.33;;
57389;SDS011;43217;52.694;6.214;2023-01-04T14:51:20;11.30;;;3.30;;
57389;SDS011;43217;52.694;6.214;2023-01-04T14:53:57;10.90;;;3.13;;
57389;SDS011;43217;52.694;6.214;2023-01-04T14:56:22;15.48;;;3.22;;
57389;SDS011;43217;52.694;6.214;2023-01-04T14:58:48;13.13;;;2.88;;
57389;SDS011;43217;52.694;6.214;2023-01-04T15:01:14;9.90;;;3.00;;
57389;SDS011;43217;52.694;6.214;2023-01-04T15:03:39;13.23;;;3.20;;
57389;SDS011;43217;52.694;6.214;2023-01-04T15:06:05;12.90;;;2.88;;
57389;SDS011;43217;52.694;6.214;2023-01-04T15:08:31;10.90;;;3.08;;
57389;SDS011;43217;52.694;6.214;2023-01-04T15:10:58;14.13;;;3.05;;
57389;SDS011;43217;52.694;6.214;2023-01-04T15:13:23;13.40;;;3.03;;
57389;SDS011;43217;52.694;6.214;2023-01-04T15:15:49;10.88;;;2.65;;
57389;SDS011;43217;52.694;6.214;2023-01-04T15:18:15;13.15;;;3.58;;
57389;SDS011;43217;52.694;6.214;2023-01-04T15:20:42;12.88;;;3.60;;
57389;SDS011;43217;52.694;6.214;2023-01-04T15:23:08;11.75;;;3.25;;
57389;SDS011;43217;52.694;6.214;2023-01-04T15:25:35;11.25;;;2.90;;
57389;SDS011;43217;52.694;6.214;2023-01-04T15:28:03;13.05;;;2.75;;
57389;SDS011;43217;52.694;6.214;2023-01-04T15:30:29;13.82;;;2.90;;
57389;SDS011;43217;52.694;6.214;2023-01-04T15:32:54;18.05;;;3.50;;
57389;SDS011;43217;52.694;6.214;2023-01-04T15:35:20;13.27;;;3.22;;
57389;SDS011;43217;52.694;6.214;2023-01-04T15:37:46;15.80;;;3.15;;
57389;SDS011;43217;52.694;6.214;2023-01-04T15:40:12;13.45;;;3.00;;
57389;SDS011;43217;52.694;6.214;2023-01-04T15:42:40;13.02;;;3.38;;
57389;SDS011;43217;52.694;6.214;2023-01-04T15:45:24;16.00;;;3.08;;
57389;SDS011;43217;52.694;6.214;2023-01-04T15:47:55;15.63;;;3.67;;
57389;SDS011;43217;52.694;6.214;2023-01-04T15:50:26;14.45;;;3.08;;
57389;SDS011;43217;52.694;6.214;2023-01-04T15:53:00;13.18;;;3.72;;
57389;SDS011;43217;52.694;6.214;2023-01-04T15:55:28;12.90;;;3.13;;
57389;SDS011;43217;52.694;6.214;2023-01-04T15:57:54;16.33;;;3.53;;
57389;SDS011;43217;52.694;6.214;2023-01-04T16:00:20;15.48;;;3.58;;
57389;SDS011;43217;52.694;6.214;2023-01-04T16:02:45;12.90;;;3.13;;
57389;SDS011;43217;52.694;6.214;2023-01-04T16:05:11;15.18;;;3.25;;
57389;SDS011;43217;52.694;6.214;2023-01-04T16:07:36;11.27;;;2.92;;
57389;SDS011;43217;52.694;6.214;2023-01-04T16:10:02;15.00;;;3.35;;
57389;SDS011;43217;52.694;6.214;2023-01-04T16:12:28;13.02;;;3.10;;
57389;SDS011;43217;52.694;6.214;2023-01-04T16:15:16;12.43;;;3.80;;
57389;SDS011;43217;52.694;6.214;2023-01-04T16:17:44;17.13;;;3.20;;
57389;SDS011;43217;52.694;6.214;2023-01-04T16:20:12;10.18;;;2.97;;
57389;SDS011;43217;52.694;6.214;2023-01-04T16:22:38;10.75;;;3.10;;
57389;SDS011;43217;52.694;6.214;2023-01-04T16:25:05;13.80;;;3.25;;
57389;SDS011;43217;52.694;6.214;2023-01-04T16:27:32;9.75;;;2.67;;
57389;SDS011;43217;52.694;6.214;2023-01-04T16:29:59;17.45;;;3.80;;
57389;SDS011;43217;52.694;6.214;2023-01-04T16:32:26;13.52;;;3.83;;
57389;SDS011;43217;52.694;6.214;2023-01-04T16:34:51;16.33;;;3.92;;
57389;SDS011;43217;52.694;6.214;2023-01-04T16:37:17;13.80;;;3.28;;
57389;SDS011;43217;52.694;6.214;2023-01-04T16:39:44;17.08;;;3.50;;
57389;SDS011;43217;52.694;6.214;2023-01-04T16:42:11;13.75;;;3.80;;
57389;SDS011;43217;52.694;6.214;2023-01-04T16:44:37;12.60;;;4.07;;
57389;SDS011;43217;52.694;6.214;2023-01-04T16:47:03;16.92;;;4.18;;
57389;SDS011;43217;52.694;6.214;2023-01-04T16:49:28;15.13;;;3.60;;
57389;SDS011;43217;52.694;6.214;2023-01-04T16:51:54;19.98;;;5.95;;
57389;SDS011;43217;52.694;6.214;2023-01-04T16:54:19;21.52;;;4.65;;
57389;SDS011;43217;52.694;6.214;2023-01-04T16:56:45;18.70;;;5.47;;
57389;SDS011;43217;52.694;6.214;2023-01-04T16:59:15;16.48;;;4.68;;
57389;SDS011;43217;52.694;6.214;2023-01-04T17:01:45;23.52;;;7.07;;
57389;SDS011;43217;52.694;6.214;2023-01-04T17:04:14;18.35;;;4.50;;